createdAt,value
2022-11-03T00:00:12.486Z,87.79
2022-11-03T00:01:07.924Z,87.60
2022-11-03T00:02:08.055Z,87.98
2022-11-03T00:03:08.418Z,87.89
2022-11-03T00:04:07.875Z,87.89
2022-11-03T00:05:07.859Z,87.70
2022-11-03T00:06:07.840Z,88.37
2022-11-03T00:07:07.830Z,88.37
2022-11-03T00:08:07.878Z,88.08
2022-11-03T00:09:07.788Z,88.18
2022-11-03T00:10:07.772Z,88.27
2022-11-03T00:11:07.755Z,88.37
2022-11-03T00:12:07.741Z,88.46
2022-11-03T00:13:07.916Z,88.46
2022-11-03T00:14:07.702Z,88.08
2022-11-03T00:15:07.682Z,88.27
2022-11-03T00:16:07.670Z,88.56
2022-11-03T00:17:07.649Z,89.03
2022-11-03T00:18:07.633Z,88.65
2022-11-03T00:19:07.617Z,88.75
2022-11-03T00:20:07.598Z,88.84
2022-11-03T00:21:07.584Z,88.65
2022-11-03T00:22:07.565Z,88.65
2022-11-03T00:23:07.907Z,89.13
2022-11-03T00:24:07.533Z,88.93
2022-11-03T00:25:07.513Z,88.93
2022-11-03T00:26:07.495Z,89.13
2022-11-03T00:27:07.478Z,89.13
2022-11-03T00:28:07.464Z,89.03
2022-11-03T00:29:07.443Z,89.03
2022-11-03T00:30:07.427Z,88.93
2022-11-03T00:31:07.408Z,89.32
2022-11-03T00:32:07.392Z,89.22
2022-11-03T00:33:07.611Z,89.13
2022-11-03T00:34:07.387Z,88.93
2022-11-03T00:35:07.338Z,88.93
2022-11-03T00:36:07.321Z,88.93
2022-11-03T00:37:07.303Z,88.93
2022-11-03T00:38:07.289Z,89.32
2022-11-03T00:39:07.270Z,88.56
2022-11-03T00:40:07.254Z,88.75
2022-11-03T00:41:07.234Z,88.75
2022-11-03T00:42:07.217Z,88.93
2022-11-03T00:43:07.632Z,89.03
2022-11-03T00:44:07.184Z,88.46
2022-11-03T00:45:07.165Z,88.75
2022-11-03T00:46:07.148Z,89.13
2022-11-03T00:47:07.130Z,89.13
2022-11-03T00:48:07.119Z,89.13
2022-11-03T00:49:07.095Z,89.13
2022-11-03T00:50:07.079Z,88.93
2022-11-03T00:51:07.061Z,89.22
2022-11-03T00:52:07.044Z,89.51
2022-11-03T00:53:07.490Z,89.32
2022-11-03T00:54:07.010Z,88.93
2022-11-03T00:55:06.988Z,89.22
2022-11-03T00:56:06.974Z,89.03
2022-11-03T00:57:06.955Z,89.32
2022-11-03T00:58:06.944Z,89.51
2022-11-03T00:59:06.927Z,89.61
2022-11-03T01:00:06.905Z,89.41
2022-11-03T01:01:06.937Z,88.93
2022-11-03T01:02:06.955Z,88.75
2022-11-03T01:03:07.209Z,88.93
2022-11-03T01:04:06.835Z,89.98
2022-11-03T01:05:06.817Z,89.51
2022-11-03T01:06:06.800Z,89.51
2022-11-03T01:07:06.782Z,89.70
2022-11-03T01:08:06.768Z,89.70
2022-11-03T01:09:06.754Z,89.79
2022-11-03T01:10:06.731Z,89.41
2022-11-03T01:11:06.717Z,89.79
2022-11-03T01:12:06.697Z,89.61
2022-11-03T01:13:07.073Z,89.32
2022-11-03T01:14:06.661Z,89.70
2022-11-03T01:15:06.641Z,90.08
2022-11-03T01:16:06.628Z,89.51
2022-11-03T01:17:06.624Z,88.93
2022-11-03T01:18:06.593Z,88.93
2022-11-03T01:19:06.573Z,89.13
2022-11-03T01:20:06.562Z,89.51
2022-11-03T01:21:06.537Z,89.51
2022-11-03T01:22:10.582Z,89.89
2022-11-03T01:23:06.817Z,89.51
2022-11-03T01:24:06.486Z,89.70
2022-11-03T01:25:06.468Z,89.79
2022-11-03T01:26:06.458Z,89.70
2022-11-03T01:27:06.441Z,89.79
2022-11-03T01:28:06.427Z,89.98
2022-11-03T01:29:06.400Z,89.98
2022-11-03T01:30:06.381Z,89.79
2022-11-03T01:31:06.366Z,90.27
2022-11-03T01:32:06.348Z,90.08
2022-11-03T01:33:06.535Z,90.27
2022-11-03T01:34:06.312Z,90.27
2022-11-03T01:35:06.301Z,90.08
2022-11-03T01:36:06.279Z,91.03
2022-11-03T01:37:06.278Z,90.56
2022-11-03T01:38:06.244Z,90.08
2022-11-03T01:39:06.238Z,90.17
2022-11-03T01:40:06.209Z,90.84
2022-11-03T01:41:06.193Z,90.84
2022-11-03T01:42:13.924Z,90.80
2022-11-03T01:44:10.127Z,91.17
2022-11-03T01:45:10.088Z,91.17
2022-11-03T01:47:14.062Z,91.94
2022-11-03T01:48:14.025Z,91.75
2022-11-03T01:50:17.984Z,91.84
2022-11-03T01:51:17.957Z,92.36
2022-11-03T01:53:10.853Z,92.03
2022-11-03T01:54:10.816Z,91.89
2022-11-03T01:55:10.803Z,91.84
2022-11-03T01:56:10.784Z,91.75
2022-11-03T01:57:10.767Z,91.94
2022-11-03T01:58:10.746Z,92.22
2022-11-03T01:59:10.732Z,92.03
2022-11-03T02:00:10.712Z,91.56
2022-11-03T02:01:10.849Z,91.94
2022-11-03T02:02:10.860Z,92.32
2022-11-03T02:03:10.660Z,91.94
2022-11-03T02:04:10.646Z,92.03
2022-11-03T02:05:10.625Z,92.60
2022-11-03T02:06:10.606Z,92.89
2022-11-03T02:07:10.591Z,92.89
2022-11-03T02:08:10.588Z,92.32
2022-11-03T02:09:10.558Z,92.89
2022-11-03T02:10:10.536Z,92.79
2022-11-03T02:11:10.521Z,92.60
2022-11-03T02:12:10.510Z,92.32
2022-11-03T02:13:10.486Z,92.32
2022-11-03T02:14:10.464Z,92.22
2022-11-03T02:15:10.452Z,93.08
2022-11-03T02:16:10.435Z,92.70
2022-11-03T02:17:10.415Z,92.79
2022-11-03T02:18:10.396Z,92.89
2022-11-03T02:19:10.381Z,92.79
2022-11-03T02:20:10.361Z,92.89
2022-11-03T02:21:10.346Z,93.18
2022-11-03T02:22:10.332Z,92.99
2022-11-03T02:23:10.526Z,93.27
2022-11-03T02:24:10.290Z,93.27
2022-11-03T02:25:10.272Z,92.99
2022-11-03T02:26:10.258Z,92.79
2022-11-03T02:27:10.239Z,93.18
2022-11-03T02:28:10.222Z,92.99
2022-11-03T02:29:10.204Z,93.08
2022-11-03T02:30:10.185Z,93.27
2022-11-03T02:31:10.175Z,93.18
2022-11-03T02:32:10.154Z,93.08
2022-11-03T02:33:10.131Z,92.99
2022-11-03T02:34:10.113Z,93.27
2022-11-03T02:35:10.097Z,93.74
2022-11-03T02:36:10.081Z,93.18
2022-11-03T02:37:10.062Z,93.27
2022-11-03T02:38:10.041Z,93.08
2022-11-03T02:39:10.027Z,93.08
2022-11-03T02:40:10.012Z,93.18
2022-11-03T02:41:09.993Z,93.27
2022-11-03T02:42:09.972Z,92.79
2022-11-03T02:43:09.957Z,92.79
2022-11-03T02:44:09.941Z,93.37
2022-11-03T02:45:13.262Z,93.27
2022-11-03T02:46:09.902Z,93.27
2022-11-03T02:47:09.909Z,92.99
2022-11-03T02:48:09.865Z,93.08
2022-11-03T02:49:09.849Z,93.04
2022-11-03T02:50:09.831Z,92.75
2022-11-03T02:51:09.820Z,92.84
2022-11-03T02:52:09.797Z,93.98
2022-11-03T02:53:09.890Z,93.32
2022-11-03T02:54:09.759Z,93.46
2022-11-03T02:55:09.747Z,93.23
2022-11-03T02:56:09.727Z,93.79
2022-11-03T02:57:09.708Z,93.70
2022-11-03T02:58:09.689Z,93.41
2022-11-03T02:59:09.674Z,93.51
2022-11-03T03:00:09.656Z,93.51
2022-11-03T03:01:09.689Z,93.51
2022-11-03T03:02:09.748Z,94.46
2022-11-03T03:03:09.716Z,94.27
2022-11-03T03:04:09.586Z,94.46
2022-11-03T03:05:09.564Z,93.70
2022-11-03T03:06:09.549Z,94.18
2022-11-03T03:07:09.531Z,94.18
2022-11-03T03:08:09.512Z,94.37
2022-11-03T03:09:09.495Z,94.08
2022-11-03T03:10:09.475Z,94.56
2022-11-03T03:11:09.462Z,95.12
2022-11-03T03:12:09.441Z,95.51
2022-11-03T03:13:09.672Z,95.41
2022-11-03T03:14:09.408Z,94.93
2022-11-03T03:15:09.392Z,95.51
2022-11-03T03:16:09.379Z,95.51
2022-11-03T03:17:09.350Z,94.93
2022-11-03T03:18:09.333Z,95.51
2022-11-03T03:19:09.318Z,95.41
2022-11-03T03:20:09.297Z,95.32
2022-11-03T03:21:09.280Z,95.98
2022-11-03T03:22:09.264Z,95.79
2022-11-03T03:23:11.793Z,95.89
2022-11-03T03:24:09.233Z,96.36
2022-11-03T03:25:09.211Z,96.36
2022-11-03T03:26:09.189Z,95.98
2022-11-03T03:27:09.199Z,95.70
2022-11-03T03:28:09.155Z,95.70
2022-11-03T03:29:09.139Z,96.08
2022-11-03T03:30:09.117Z,96.17
2022-11-03T03:31:09.104Z,96.55
2022-11-03T03:32:09.088Z,96.65
2022-11-03T03:33:09.494Z,96.65
2022-11-03T03:34:31.577Z,96.94
2022-11-03T03:35:09.032Z,97.13
2022-11-03T03:36:09.013Z,96.74
2022-11-03T03:37:09.001Z,96.74
2022-11-03T03:38:09.223Z,97.03
2022-11-03T03:39:08.963Z,97.13
2022-11-03T03:40:08.939Z,96.84
2022-11-03T03:41:10.816Z,96.36
2022-11-03T03:42:08.905Z,96.74
2022-11-03T03:43:08.888Z,97.41
2022-11-03T03:44:08.871Z,97.22
2022-11-03T03:45:08.852Z,97.13
2022-11-03T03:46:08.833Z,97.22
2022-11-03T03:47:08.822Z,97.50
2022-11-03T03:48:08.996Z,97.41
2022-11-03T03:49:08.780Z,97.60
2022-11-03T03:50:08.762Z,97.03
2022-11-03T03:51:08.746Z,97.22
2022-11-03T03:52:08.726Z,97.22
2022-11-03T03:53:08.707Z,97.41
2022-11-03T03:54:08.709Z,97.08
2022-11-03T03:55:08.672Z,97.41
2022-11-03T03:56:08.653Z,97.46
2022-11-03T03:57:08.640Z,97.93
2022-11-03T03:58:09.132Z,97.93
2022-11-03T03:59:08.599Z,97.36
2022-11-03T04:00:08.584Z,97.36
2022-11-03T04:01:08.592Z,97.08
2022-11-03T04:02:08.661Z,97.36
2022-11-03T04:03:08.529Z,97.17
2022-11-03T04:04:08.519Z,97.55
2022-11-03T04:05:08.493Z,97.17
2022-11-03T04:06:08.473Z,97.74
2022-11-03T04:07:08.456Z,97.93
2022-11-03T04:08:08.810Z,97.65
2022-11-03T04:09:08.420Z,97.46
2022-11-03T04:10:08.403Z,97.65
2022-11-03T04:11:08.384Z,97.36
2022-11-03T04:12:08.368Z,97.17
2022-11-03T04:13:08.359Z,97.27
2022-11-03T04:14:08.343Z,97.46
2022-11-03T04:15:08.314Z,97.27
2022-11-03T04:16:08.297Z,97.46
2022-11-03T04:17:08.277Z,97.46
2022-11-03T04:18:08.580Z,97.36
2022-11-03T04:19:08.245Z,97.08
2022-11-03T04:20:08.230Z,97.36
2022-11-03T04:21:08.210Z,97.65
2022-11-03T04:22:08.190Z,96.79
2022-11-03T04:23:08.173Z,97.46
2022-11-03T04:24:08.154Z,97.27
2022-11-03T04:25:08.135Z,97.27
2022-11-03T04:26:08.119Z,97.27
2022-11-03T04:27:08.106Z,97.17
2022-11-03T04:28:08.324Z,97.74
2022-11-03T04:29:08.063Z,97.46
2022-11-03T04:30:08.045Z,97.08
2022-11-03T04:31:08.033Z,97.27
2022-11-03T04:32:08.028Z,97.46
2022-11-03T04:33:07.993Z,97.46
2022-11-03T04:34:07.980Z,97.36
2022-11-03T04:35:07.958Z,97.27
2022-11-03T04:36:07.951Z,97.17
2022-11-03T04:37:07.924Z,96.70
2022-11-03T04:38:08.175Z,96.70
2022-11-03T04:39:07.890Z,96.79
2022-11-03T04:40:07.870Z,96.98
2022-11-03T04:41:07.868Z,97.36
2022-11-03T04:42:07.835Z,96.70
2022-11-03T04:43:08.210Z,96.70
2022-11-03T04:44:07.797Z,97.17
2022-11-03T04:45:07.779Z,97.46
2022-11-03T04:46:07.792Z,97.17
2022-11-03T04:47:07.745Z,97.36
2022-11-03T04:48:07.727Z,97.65
2022-11-03T04:49:07.710Z,97.46
2022-11-03T04:50:07.699Z,97.27
2022-11-03T04:51:07.679Z,97.27
2022-11-03T04:52:07.734Z,97.17
2022-11-03T04:53:07.931Z,96.98
2022-11-03T04:54:07.625Z,97.17
2022-11-03T04:55:07.627Z,97.27
2022-11-03T04:56:07.674Z,97.46
2022-11-03T04:57:07.568Z,97.46
2022-11-03T04:58:07.549Z,97.17
2022-11-03T04:59:08.834Z,97.27
2022-11-03T05:00:07.520Z,97.27
2022-11-03T05:01:07.557Z,97.93
2022-11-03T05:02:07.558Z,97.65
2022-11-03T05:03:07.797Z,97.46
2022-11-03T05:04:07.442Z,96.98
2022-11-03T05:05:07.428Z,98.03
2022-11-03T05:06:07.414Z,98.03
2022-11-03T05:07:07.392Z,98.13
2022-11-03T05:08:07.374Z,97.55
2022-11-03T05:09:07.358Z,97.55
2022-11-03T05:10:07.335Z,97.93
2022-11-03T05:11:07.323Z,98.03
2022-11-03T05:12:07.302Z,98.32
2022-11-03T05:13:07.602Z,98.03
2022-11-03T05:14:07.265Z,97.93
2022-11-03T05:15:07.248Z,98.32
2022-11-03T05:16:07.230Z,97.93
2022-11-03T05:17:07.214Z,98.32
2022-11-03T05:18:07.193Z,97.93
2022-11-03T05:19:07.182Z,98.32
2022-11-03T05:20:07.157Z,97.65
2022-11-03T05:21:07.142Z,98.32
2022-11-03T05:22:07.124Z,98.32
2022-11-03T05:23:07.496Z,98.03
2022-11-03T05:24:07.159Z,97.93
2022-11-03T05:25:07.071Z,98.13
2022-11-03T05:26:07.057Z,98.32
2022-11-03T05:27:07.038Z,97.93
2022-11-03T05:28:07.272Z,98.03
2022-11-03T05:29:06.999Z,98.03
2022-11-03T05:30:06.981Z,98.22
2022-11-03T05:31:06.965Z,98.41
2022-11-03T05:32:06.968Z,98.50
2022-11-03T05:33:06.930Z,98.13
2022-11-03T05:34:06.910Z,97.93
2022-11-03T05:35:06.893Z,97.27
2022-11-03T05:36:06.877Z,97.46
2022-11-03T05:37:06.857Z,98.22
2022-11-03T05:38:07.155Z,97.46
2022-11-03T05:39:06.823Z,97.93
2022-11-03T05:40:06.805Z,97.84
2022-11-03T05:41:06.788Z,98.32
2022-11-03T05:42:06.770Z,98.13
2022-11-03T05:43:11.985Z,98.50
2022-11-03T05:44:06.734Z,97.55
2022-11-03T05:45:06.721Z,98.60
2022-11-03T05:47:08.360Z,98.41
2022-11-03T05:48:06.997Z,97.93
2022-11-03T05:49:06.647Z,98.50
2022-11-03T05:50:06.625Z,98.03
2022-11-03T05:51:06.609Z,98.50
2022-11-03T05:52:06.593Z,97.93
2022-11-03T05:53:06.572Z,98.50
2022-11-03T05:54:06.555Z,98.88
2022-11-03T05:55:06.536Z,99.08
2022-11-03T05:56:06.524Z,98.79
2022-11-03T05:57:06.500Z,98.65
2022-11-03T05:58:06.659Z,98.17
2022-11-03T05:59:06.465Z,99.12
2022-11-03T06:00:06.453Z,99.36
2022-11-03T06:01:06.430Z,99.22
2022-11-03T06:02:06.506Z,99.08
2022-11-03T06:03:06.397Z,99.36
2022-11-03T06:04:06.378Z,99.22
2022-11-03T06:05:06.366Z,99.46
2022-11-03T06:06:06.340Z,99.08
2022-11-03T06:07:06.320Z,98.83
2022-11-03T06:08:06.708Z,98.93
2022-11-03T06:09:06.287Z,99.74
2022-11-03T06:10:06.269Z,99.27
2022-11-03T06:11:06.250Z,99.36
2022-11-03T06:12:06.235Z,99.27
2022-11-03T06:13:06.467Z,98.88
2022-11-03T06:14:06.199Z,99.08
2022-11-03T06:15:06.180Z,99.08
2022-11-03T06:16:06.168Z,98.98
2022-11-03T06:17:06.188Z,99.27
2022-11-03T06:18:06.127Z,98.83
2022-11-03T06:19:06.108Z,99.27
2022-11-03T06:20:06.097Z,98.83
2022-11-03T06:21:06.073Z,99.02
2022-11-03T06:22:06.055Z,98.83
2022-11-03T06:23:06.404Z,98.93
2022-11-03T06:24:06.022Z,98.83
2022-11-03T06:25:06.002Z,99.31
2022-11-03T06:26:05.984Z,99.02
2022-11-03T06:27:05.964Z,98.83
2022-11-03T06:28:05.951Z,98.65
2022-11-03T06:29:05.929Z,99.50
2022-11-03T06:30:05.913Z,99.31
2022-11-03T06:31:05.893Z,99.22
2022-11-03T06:32:05.876Z,99.02
2022-11-03T06:33:06.245Z,99.31
2022-11-03T06:34:05.839Z,98.93
2022-11-03T06:35:05.856Z,98.69
2022-11-03T06:36:05.807Z,98.88
2022-11-03T06:37:10.813Z,99.02
2022-11-03T06:38:05.768Z,98.98
2022-11-03T06:39:05.749Z,98.98
2022-11-03T06:40:05.733Z,98.88
2022-11-03T06:41:05.716Z,98.79
2022-11-03T06:42:05.713Z,99.08
2022-11-03T06:43:05.813Z,98.41
2022-11-03T06:44:05.661Z,98.41
2022-11-03T06:45:05.644Z,98.32
2022-11-03T06:46:05.625Z,98.41
2022-11-03T06:47:05.610Z,98.32
2022-11-03T06:48:05.591Z,98.41
2022-11-03T06:49:05.577Z,98.50
2022-11-03T06:50:05.558Z,98.03
2022-11-03T06:51:05.535Z,98.32
2022-11-03T06:52:05.520Z,98.13
2022-11-03T06:53:05.952Z,98.13
2022-11-03T06:54:05.488Z,98.13
2022-11-03T06:55:05.465Z,98.03
2022-11-03T06:56:05.465Z,97.93
2022-11-03T06:57:05.429Z,98.22
2022-11-03T06:58:05.413Z,98.03
2022-11-03T06:59:05.394Z,97.93
2022-11-03T07:00:28.477Z,97.93
2022-11-03T07:01:05.398Z,97.27
2022-11-03T07:02:05.460Z,97.08
2022-11-03T07:03:05.642Z,96.98
2022-11-03T07:04:05.307Z,97.03
2022-11-03T07:05:05.287Z,97.22
2022-11-03T07:06:05.271Z,97.41
2022-11-03T07:07:05.253Z,97.60
2022-11-03T07:08:05.240Z,97.51
2022-11-03T07:09:05.218Z,97.51
2022-11-03T07:10:05.200Z,97.51
2022-11-03T07:11:05.183Z,97.60
2022-11-03T07:12:05.173Z,97.31
2022-11-03T07:13:07.285Z,97.03
2022-11-03T07:14:05.132Z,97.51
2022-11-03T07:16:05.101Z,97.31
2022-11-03T07:17:05.079Z,97.22
2022-11-03T07:18:05.539Z,97.31
2022-11-03T07:19:05.048Z,97.22
2022-11-03T07:20:05.028Z,97.31
2022-11-03T07:21:05.008Z,96.84
2022-11-03T07:22:04.992Z,96.84
2022-11-03T07:23:04.973Z,96.75
2022-11-03T07:24:04.976Z,96.65
2022-11-03T07:25:04.936Z,96.65
2022-11-03T07:26:04.932Z,96.65
2022-11-03T07:27:04.902Z,96.60
2022-11-03T07:28:05.366Z,96.32
2022-11-03T07:29:04.867Z,95.75
2022-11-03T07:30:04.868Z,96.12
2022-11-03T07:31:04.835Z,95.75
2022-11-03T07:32:04.818Z,95.75
2022-11-03T07:33:04.797Z,95.84
2022-11-03T07:34:04.782Z,95.17
2022-11-03T07:35:04.768Z,95.08
2022-11-03T07:36:20.234Z,95.51
2022-11-03T07:37:04.762Z,95.03
2022-11-03T07:38:05.026Z,94.93
2022-11-03T07:39:04.698Z,94.65
2022-11-03T07:40:04.681Z,94.46
2022-11-03T07:41:04.659Z,94.74
2022-11-03T07:42:04.643Z,93.88
2022-11-03T07:43:04.626Z,93.70
2022-11-03T07:44:04.613Z,93.65
2022-11-03T07:45:04.597Z,94.03
2022-11-03T07:46:04.578Z,94.60
2022-11-03T07:47:04.562Z,94.51
2022-11-03T07:48:04.719Z,94.60
2022-11-03T07:49:04.525Z,94.51
2022-11-03T07:50:04.510Z,94.60
2022-11-03T07:51:04.490Z,94.70
2022-11-03T07:52:04.474Z,94.70
2022-11-03T07:53:04.456Z,94.22
2022-11-03T07:54:04.443Z,94.65
2022-11-03T07:55:04.421Z,94.03
2022-11-03T07:56:04.478Z,94.08
2022-11-03T07:57:04.388Z,93.79
2022-11-03T07:58:04.709Z,94.08
2022-11-03T07:59:04.358Z,93.79
2022-11-03T08:00:07.213Z,93.22
2022-11-03T08:01:04.321Z,92.55
2022-11-03T08:02:04.488Z,92.74
2022-11-03T08:03:04.502Z,92.74
2022-11-03T08:04:04.306Z,92.55
2022-11-03T08:05:04.389Z,92.36
2022-11-03T08:06:06.177Z,92.65
2022-11-03T08:07:04.225Z,92.27
2022-11-03T08:08:04.432Z,91.50
2022-11-03T08:09:04.185Z,91.31
2022-11-03T08:10:04.169Z,91.50
2022-11-03T08:11:04.209Z,91.41
2022-11-03T08:12:04.141Z,91.98
2022-11-03T08:13:04.417Z,91.55
2022-11-03T08:14:04.102Z,91.74
2022-11-03T08:15:04.087Z,91.64
2022-11-03T08:16:04.075Z,91.55
2022-11-03T08:17:04.053Z,91.64
2022-11-03T08:18:04.036Z,91.36
2022-11-03T08:19:04.019Z,91.36
2022-11-03T08:20:04.006Z,90.31
2022-11-03T08:21:03.991Z,90.50
2022-11-03T08:22:03.975Z,90.79
2022-11-03T08:24:11.627Z,91.17
2022-11-03T08:26:08.168Z,90.26
2022-11-03T08:27:08.041Z,90.07
2022-11-03T08:28:08.033Z,89.40
2022-11-03T08:29:08.010Z,90.07
2022-11-03T08:30:07.990Z,90.36
2022-11-03T08:31:12.170Z,89.21
2022-11-03T08:32:07.964Z,89.40
2022-11-03T08:33:08.268Z,89.40
2022-11-03T08:34:07.924Z,89.40
2022-11-03T08:35:07.911Z,89.12
2022-11-03T08:36:07.891Z,89.59
2022-11-03T08:37:07.874Z,88.45
2022-11-03T08:38:08.260Z,88.54
2022-11-03T08:39:07.842Z,87.78
2022-11-03T08:40:07.826Z,87.78
2022-11-03T08:41:07.808Z,87.49
2022-11-03T08:42:07.796Z,86.54
2022-11-03T08:43:07.784Z,87.21
2022-11-03T08:44:07.764Z,87.21
2022-11-03T08:45:07.748Z,87.30
2022-11-03T08:46:15.833Z,87.11
2022-11-03T08:47:07.715Z,87.78
2022-11-03T08:48:08.014Z,87.59
2022-11-03T08:49:07.681Z,87.30
2022-11-03T08:50:07.666Z,87.40
2022-11-03T08:51:07.651Z,87.73
2022-11-03T08:52:07.635Z,87.73
2022-11-03T08:53:07.622Z,87.82
2022-11-03T08:54:07.602Z,87.73
2022-11-03T08:55:07.586Z,87.25
2022-11-03T08:56:10.534Z,87.06
2022-11-03T08:57:07.551Z,87.39
2022-11-03T08:58:07.904Z,87.39
2022-11-03T08:59:07.522Z,86.82
2022-11-03T09:00:07.509Z,86.67
2022-11-03T09:01:07.497Z,86.38
2022-11-03T09:02:07.545Z,86.57
2022-11-03T09:03:07.530Z,85.57
2022-11-03T09:04:07.498Z,85.57
2022-11-03T09:05:07.433Z,84.70
2022-11-03T09:06:07.415Z,85.22
2022-11-03T09:07:07.401Z,84.36
2022-11-03T09:10:26.358Z,82.53
2022-11-03T09:11:07.339Z,82.63
2022-11-03T09:12:07.323Z,80.33
2022-11-03T09:13:07.649Z,79.95
2022-11-03T09:14:07.295Z,78.27
2022-11-03T09:15:07.284Z,77.97
2022-11-03T09:16:07.271Z,78.55
2022-11-03T09:17:07.253Z,77.78
2022-11-03T09:18:07.641Z,78.17
2022-11-03T09:19:07.225Z,78.55
2022-11-03T09:20:07.210Z,77.50
2022-11-03T09:21:07.199Z,77.78
2022-11-03T09:22:07.182Z,76.15
2022-11-03T09:23:07.166Z,76.15
2022-11-03T09:24:07.154Z,76.35
2022-11-03T09:25:07.137Z,75.68
2022-11-03T09:26:07.127Z,76.25
2022-11-03T09:27:07.117Z,73.28
2022-11-03T09:28:07.382Z,73.86
2022-11-03T09:29:07.082Z,73.95
2022-11-03T09:30:13.188Z,74.52
2022-11-03T09:31:07.057Z,75.45
2022-11-03T09:32:07.051Z,75.54
2022-11-03T09:33:07.029Z,76.60
2022-11-03T09:34:07.013Z,76.89
2022-11-03T09:35:06.998Z,77.59
2022-11-03T09:36:06.983Z,77.78
2022-11-03T09:37:06.970Z,77.78
2022-11-03T09:38:07.316Z,77.97
2022-11-03T09:39:06.969Z,77.78
2022-11-03T09:40:06.947Z,77.78
2022-11-03T09:41:18.549Z,77.88
2022-11-03T09:42:06.901Z,78.36
2022-11-03T09:43:07.153Z,77.84
2022-11-03T09:44:06.873Z,78.22
2022-11-03T09:45:06.856Z,78.61
2022-11-03T09:46:06.853Z,78.80
2022-11-03T09:47:06.830Z,78.70
2022-11-03T09:48:07.059Z,78.61
2022-11-03T09:49:06.813Z,78.89
2022-11-03T09:50:06.793Z,78.57
2022-11-03T09:51:06.792Z,78.86
2022-11-03T09:52:06.766Z,79.43
2022-11-03T09:53:07.085Z,78.86
2022-11-03T09:54:06.733Z,78.86
2022-11-03T09:55:06.717Z,78.95
2022-11-03T09:56:06.708Z,79.05
2022-11-03T09:57:06.689Z,79.52
2022-11-03T09:58:06.994Z,79.24
2022-11-03T09:59:06.688Z,80.00
2022-11-03T10:00:06.649Z,79.62
2022-11-03T10:01:06.855Z,79.72
2022-11-03T10:02:06.776Z,79.05
2022-11-03T10:03:06.892Z,79.77
2022-11-03T10:04:06.588Z,79.49
2022-11-03T10:05:11.003Z,79.87
2022-11-03T10:06:09.669Z,79.68
2022-11-03T10:07:06.546Z,79.49
2022-11-03T10:08:06.539Z,79.29
2022-11-03T10:09:06.523Z,79.87
2022-11-03T10:10:06.511Z,79.68
2022-11-03T10:11:06.487Z,79.96
2022-11-03T10:12:06.471Z,79.29
2022-11-03T10:13:06.789Z,79.68
2022-11-03T10:14:06.447Z,80.16
2022-11-03T10:15:06.430Z,79.87
2022-11-03T10:16:06.417Z,80.06
2022-11-03T10:17:06.406Z,79.68
2022-11-03T10:18:06.395Z,80.25
2022-11-03T10:19:06.371Z,80.44
2022-11-03T10:20:06.361Z,79.87
2022-11-03T10:21:06.342Z,79.91
2022-11-03T10:22:06.330Z,79.72
2022-11-03T10:23:06.632Z,79.72
2022-11-03T10:24:06.297Z,79.81
2022-11-03T10:25:06.288Z,80.16
2022-11-03T10:26:06.269Z,79.91
2022-11-03T10:27:06.257Z,79.87
2022-11-03T10:28:10.339Z,80.35
2022-11-03T10:29:06.364Z,80.25
2022-11-03T10:30:06.215Z,79.77
2022-11-03T10:31:13.838Z,79.77
2022-11-03T10:32:06.183Z,79.62
2022-11-03T10:33:06.394Z,78.91
2022-11-03T10:34:06.155Z,78.81
2022-11-03T10:35:06.139Z,78.91
2022-11-03T10:36:06.124Z,79.49
2022-11-03T10:37:06.109Z,79.00
2022-11-03T10:38:06.097Z,78.81
2022-11-03T10:39:06.083Z,79.29
2022-11-03T10:40:07.026Z,79.00
2022-11-03T10:41:06.052Z,78.72
2022-11-03T10:42:06.070Z,78.72
2022-11-03T10:43:06.401Z,78.24
2022-11-03T10:44:06.065Z,78.53
2022-11-03T10:45:05.995Z,78.72
2022-11-03T10:46:08.081Z,79.29
2022-11-03T10:47:05.964Z,78.63
2022-11-03T10:48:05.947Z,78.72
2022-11-03T10:50:05.923Z,79.33
2022-11-03T10:51:05.912Z,79.43
2022-11-03T10:52:05.891Z,78.47
2022-11-03T10:53:06.229Z,77.04
2022-11-03T10:54:05.872Z,77.13
2022-11-03T10:55:05.852Z,77.61
2022-11-03T10:56:05.840Z,76.27
2022-11-03T10:57:05.822Z,75.98
2022-11-03T10:58:06.152Z,76.56
2022-11-03T10:59:05.796Z,76.79
2022-11-03T11:00:05.776Z,76.50
2022-11-03T11:01:05.807Z,76.89
2022-11-03T11:02:05.879Z,76.50
2022-11-03T11:03:06.111Z,75.73
2022-11-03T11:04:05.779Z,75.64
2022-11-03T11:05:05.706Z,76.21
2022-11-03T11:06:05.688Z,75.64
2022-11-03T11:07:05.682Z,75.93
2022-11-03T11:08:05.722Z,75.64
2022-11-03T11:09:05.652Z,75.79
2022-11-03T11:10:05.631Z,76.75
2022-11-03T11:11:05.619Z,76.46
2022-11-03T11:12:05.608Z,76.56
2022-11-03T11:13:05.840Z,76.56
2022-11-03T11:14:05.572Z,76.08
2022-11-03T11:15:05.568Z,76.08
2022-11-03T11:16:05.547Z,75.98
2022-11-03T11:17:05.529Z,75.66
2022-11-03T11:18:05.515Z,76.14
2022-11-03T11:19:05.502Z,76.33
2022-11-03T11:20:05.483Z,76.62
2022-11-03T11:21:05.472Z,76.62
2022-11-03T11:22:05.472Z,77.00
2022-11-03T11:23:06.027Z,77.86
2022-11-03T11:24:05.437Z,78.11
2022-11-03T11:25:05.420Z,78.11
2022-11-03T11:26:05.408Z,77.82
2022-11-03T11:27:05.384Z,77.92
2022-11-03T11:28:05.367Z,77.53
2022-11-03T11:29:05.353Z,78.39
2022-11-03T11:30:05.336Z,78.68
2022-11-03T11:31:05.324Z,79.35
2022-11-03T11:32:05.308Z,79.25
2022-11-03T11:33:05.557Z,78.78
2022-11-03T11:34:05.276Z,79.44
2022-11-03T11:35:05.284Z,79.25
2022-11-03T11:36:05.249Z,79.35
2022-11-03T11:37:05.233Z,79.44
2022-11-03T11:38:05.218Z,80.02
2022-11-03T11:39:05.207Z,79.83
2022-11-03T11:40:05.189Z,79.83
2022-11-03T11:41:05.175Z,79.88
2022-11-03T11:42:05.207Z,79.69
2022-11-03T11:43:05.569Z,80.30
2022-11-03T11:44:05.129Z,80.30
2022-11-03T11:45:05.122Z,79.88
2022-11-03T11:46:05.096Z,79.83
2022-11-03T11:47:05.092Z,80.50
2022-11-03T11:48:05.067Z,80.21
2022-11-03T11:49:05.071Z,80.02
2022-11-03T11:50:05.035Z,80.11
2022-11-03T11:51:05.026Z,80.79
2022-11-03T11:52:05.006Z,79.93
2022-11-03T11:53:05.268Z,80.11
2022-11-03T11:54:17.410Z,80.30
2022-11-03T11:55:04.963Z,80.21
2022-11-03T11:56:04.946Z,80.50
2022-11-03T11:57:04.933Z,80.02
2022-11-03T11:58:04.922Z,80.11
2022-11-03T11:59:04.904Z,80.40
2022-11-03T12:00:04.886Z,80.21
2022-11-03T12:01:04.907Z,80.30
2022-11-03T12:02:04.860Z,80.21
2022-11-03T12:03:05.360Z,80.30
2022-11-03T12:04:04.997Z,80.11
2022-11-03T12:05:04.835Z,80.11
2022-11-03T12:06:04.798Z,80.02
2022-11-03T12:07:04.781Z,80.02
2022-11-03T12:08:05.096Z,80.06
2022-11-03T12:09:04.757Z,79.93
2022-11-03T12:10:04.760Z,78.63
2022-11-03T12:11:04.829Z,78.11
2022-11-03T12:12:08.528Z,78.58
2022-11-03T12:13:04.691Z,78.68
2022-11-03T12:14:04.680Z,78.78
2022-11-03T12:15:04.662Z,79.25
2022-11-03T12:16:04.648Z,79.25
2022-11-03T12:17:04.632Z,79.25
2022-11-03T12:18:05.003Z,78.81
2022-11-03T12:19:04.606Z,78.68
2022-11-03T12:20:04.625Z,78.78
2022-11-03T12:21:04.577Z,79.35
2022-11-03T12:22:04.556Z,79.25
2022-11-03T12:23:04.541Z,79.25
2022-11-03T12:24:04.525Z,79.64
2022-11-03T12:25:04.512Z,79.64
2022-11-03T12:26:04.500Z,79.64
2022-11-03T12:27:04.485Z,79.64
2022-11-03T12:28:04.886Z,79.83
2022-11-03T12:29:04.464Z,79.44
2022-11-03T12:30:04.433Z,79.93
2022-11-03T12:31:04.437Z,79.93
2022-11-03T12:32:04.404Z,80.11
2022-11-03T12:33:04.555Z,80.02
2022-11-03T12:34:04.385Z,79.83
2022-11-03T12:35:04.370Z,79.64
2022-11-03T12:36:04.343Z,79.73
2022-11-03T12:37:04.329Z,80.21
2022-11-03T12:38:04.321Z,80.40
2022-11-03T12:39:04.303Z,79.83
2022-11-03T12:40:04.304Z,79.93
2022-11-03T12:41:04.271Z,80.11
2022-11-03T12:42:04.259Z,80.07
2022-11-03T12:43:04.506Z,80.46
2022-11-03T12:44:04.261Z,80.46
2022-11-03T12:45:04.282Z,80.17
2022-11-03T12:46:04.192Z,80.07
2022-11-03T12:47:04.181Z,80.27
2022-11-03T12:48:04.161Z,79.88
2022-11-03T12:49:04.167Z,80.36
2022-11-03T12:50:04.134Z,79.79
2022-11-03T12:51:04.155Z,79.88
2022-11-03T12:52:07.937Z,80.07
2022-11-03T12:53:04.369Z,80.74
2022-11-03T12:54:04.088Z,80.74
2022-11-03T12:55:04.058Z,80.55
2022-11-03T12:56:04.047Z,80.65
2022-11-03T12:57:04.025Z,80.93
2022-11-03T12:58:04.226Z,80.74
2022-11-03T12:59:03.996Z,80.84
2022-11-03T13:00:03.984Z,80.74
2022-11-03T13:01:04.025Z,80.74
2022-11-03T13:02:04.100Z,80.74
2022-11-03T13:03:04.066Z,80.74